createdAt,value
2022-11-24T04:49:47.644Z,59.10
2022-11-24T04:52:50.752Z,62.42
2022-11-24T04:55:53.178Z,59.90
2022-11-24T04:58:55.895Z,62.67
2022-11-24T05:01:58.617Z,58.63
2022-11-24T05:05:01.430Z,56.20
2022-11-24T05:08:04.276Z,57.92
2022-11-24T05:11:07.470Z,58.38
2022-11-24T05:14:10.233Z,60.50
2022-11-24T05:17:12.974Z,57.28
2022-11-24T05:20:15.539Z,56.88
2022-11-24T05:23:18.288Z,64.65
2022-11-24T05:26:20.740Z,65.53
2022-11-24T05:29:23.596Z,62.03
2022-11-24T05:32:26.309Z,61.03
2022-11-24T05:35:29.153Z,56.40
2022-11-24T05:38:31.828Z,58.30
2022-11-24T05:41:34.723Z,59.20
2022-11-24T05:44:37.192Z,54.75
2022-11-24T05:47:41.479Z,58.67
2022-11-24T05:50:44.009Z,53.03
2022-11-24T05:53:46.755Z,53.35
2022-11-24T05:56:49.204Z,54.10
2022-11-24T05:59:51.975Z,53.03
2022-11-24T06:02:54.744Z,51.88
2022-11-24T06:05:57.802Z,58.60
2022-11-24T06:09:00.271Z,51.50
2022-11-24T06:12:03.912Z,54.10
2022-11-24T06:15:06.942Z,49.38
2022-11-24T06:18:09.792Z,51.47
2022-11-24T06:21:12.473Z,43.53
2022-11-24T06:24:15.203Z,47.47
2022-11-24T06:27:18.373Z,48.20
2022-11-24T06:30:21.280Z,51.15
2022-11-24T06:33:23.702Z,47.47
2022-11-24T06:36:27.067Z,51.65
2022-11-24T06:39:29.588Z,49.80
2022-11-24T06:42:32.834Z,46.40
2022-11-24T06:45:35.399Z,47.90
2022-11-24T06:48:38.904Z,51.60
2022-11-24T06:51:42.298Z,47.88
2022-11-24T06:54:45.371Z,45.08
2022-11-24T06:57:47.942Z,43.38
2022-11-24T07:00:50.714Z,43.47
2022-11-24T07:03:54.866Z,40.72
2022-11-24T07:06:57.628Z,40.50
2022-11-24T07:10:00.215Z,48.90
2022-11-24T07:13:08.037Z,44.72
2022-11-24T07:19:33.374Z,50.95
2022-11-24T07:22:36.294Z,44.83
2022-11-24T07:25:39.551Z,45.78
2022-11-24T07:28:42.305Z,44.58
2022-11-24T07:31:46.024Z,41.80
2022-11-24T07:34:48.726Z,42.40
2022-11-24T07:37:55.315Z,44.50
2022-11-24T07:41:06.167Z,43.00
2022-11-24T07:44:09.030Z,46.42
2022-11-24T07:47:11.655Z,41.10
2022-11-24T07:50:14.499Z,46.25
2022-11-24T07:53:17.569Z,43.38
2022-11-24T07:56:20.349Z,40.47
2022-11-24T07:59:22.758Z,44.95
2022-11-24T08:02:25.708Z,41.33
2022-11-24T08:05:28.424Z,45.50
2022-11-24T08:08:33.410Z,46.78
2022-11-24T08:11:36.792Z,49.35
2022-11-24T08:14:39.263Z,44.95
2022-11-24T08:17:42.059Z,49.50
2022-11-24T08:20:44.697Z,44.85
2022-11-24T08:23:47.434Z,41.85
2022-11-24T08:26:49.898Z,41.50
2022-11-24T08:29:53.319Z,47.80
2022-11-24T08:32:58.333Z,46.37
2022-11-24T08:36:23.286Z,43.97
2022-11-24T08:39:25.916Z,48.53
2022-11-24T08:42:29.058Z,50.42
2022-11-24T08:45:34.294Z,46.17
2022-11-24T08:48:40.142Z,49.42
2022-11-24T08:51:43.404Z,50.95
2022-11-24T08:54:46.891Z,46.95
2022-11-24T08:57:49.364Z,50.67
2022-11-24T09:00:52.119Z,43.63
2022-11-24T09:03:55.230Z,45.85
2022-11-24T09:06:58.499Z,42.80
2022-11-24T09:10:01.139Z,47.62
2022-11-24T09:13:04.339Z,51.63
2022-11-24T09:16:10.627Z,46.25
2022-11-24T09:19:13.473Z,44.70
2022-11-24T09:22:16.203Z,47.88
2022-11-24T09:25:18.982Z,47.25
2022-11-24T09:28:21.425Z,42.80
2022-11-24T09:31:26.948Z,43.42
2022-11-24T09:34:29.535Z,44.85
2022-11-24T09:37:33.091Z,45.22
2022-11-24T09:40:35.781Z,47.00
2022-11-24T09:44:03.359Z,44.22
2022-11-24T09:47:08.896Z,38.08
2022-11-24T09:50:20.495Z,43.30
2022-11-24T09:53:36.300Z,45.97
2022-11-24T09:56:41.669Z,41.75
2022-11-24T09:59:44.215Z,43.22
2022-11-24T10:02:49.230Z,41.75
2022-11-24T10:05:52.417Z,46.03
2022-11-24T10:09:04.938Z,45.22
2022-11-24T10:12:41.464Z,41.03
2022-11-24T10:15:53.133Z,41.10
2022-11-24T10:19:36.373Z,37.65
2022-11-24T10:22:45.392Z,42.67
2022-11-24T10:25:58.296Z,36.05
2022-11-24T10:29:06.355Z,37.38
2022-11-24T10:32:18.914Z,42.53
2022-11-24T10:35:45.943Z,35.22
2022-11-24T10:38:56.659Z,39.72
2022-11-24T10:42:03.218Z,43.38
2022-11-24T10:45:19.262Z,37.17
2022-11-24T10:48:26.428Z,34.90
2022-11-24T10:52:07.734Z,41.47
2022-11-24T10:55:10.906Z,36.58
2022-11-24T10:58:17.088Z,38.92
2022-11-24T11:01:33.263Z,39.38
2022-11-24T11:04:36.300Z,38.35
2022-11-24T11:07:38.893Z,39.53
2022-11-24T11:10:43.689Z,33.72
2022-11-24T11:14:01.547Z,33.40
2022-11-24T11:17:28.023Z,33.22
2022-11-24T11:20:32.711Z,35.80
2022-11-24T11:23:37.055Z,35.33
2022-11-24T11:26:39.712Z,31.98
2022-11-24T11:36:51.371Z,32.47
2022-11-24T11:39:55.364Z,32.75
2022-11-24T11:43:03.391Z,33.58
2022-11-24T11:46:16.380Z,28.15
2022-11-24T11:49:19.419Z,29.15
2022-11-24T11:52:57.746Z,31.25
2022-11-24T11:56:21.434Z,30.35
2022-11-24T11:59:55.247Z,29.27
2022-11-24T12:03:28.517Z,25.27
2022-11-24T12:06:52.264Z,27.40
2022-11-24T12:09:58.244Z,26.05
2022-11-24T12:13:24.703Z,27.23
2022-11-24T12:16:52.245Z,25.05
2022-11-24T12:20:17.348Z,26.98
2022-11-24T12:23:57.617Z,27.42
2022-11-24T12:27:00.395Z,26.37
2022-11-24T12:30:12.963Z,22.27
2022-11-24T12:34:14.849Z,21.98
2022-11-24T12:37:17.604Z,25.50
2022-11-24T12:40:43.656Z,29.10
2022-11-24T12:43:56.072Z,22.48
2022-11-24T12:48:00.703Z,22.00
2022-11-24T12:51:06.553Z,26.08
2022-11-24T12:54:21.115Z,25.27
2022-11-24T12:57:33.355Z,21.17
2022-11-24T13:00:47.025Z,22.20
2022-11-24T13:03:58.710Z,24.90
2022-11-24T13:07:10.709Z,25.88
2022-11-24T13:13:59.721Z,20.88
2022-11-24T13:20:44.626Z,24.10
2022-11-24T13:24:01.022Z,25.48
2022-11-24T13:27:16.239Z,24.23
2022-11-24T13:30:34.167Z,21.73
2022-11-24T13:33:37.687Z,21.08
2022-11-24T13:36:53.104Z,20.70
2022-11-24T13:40:07.958Z,28.33
2022-11-24T13:43:10.404Z,21.55
2022-11-24T13:46:56.619Z,23.10
2022-11-24T13:50:05.846Z,24.83
2022-11-24T13:53:45.282Z,20.83
2022-11-24T13:56:47.736Z,24.92
2022-11-24T13:59:50.643Z,23.27
2022-11-24T14:02:58.076Z,19.58
2022-11-24T14:06:02.227Z,23.67
2022-11-24T14:09:35.013Z,26.30
2022-11-24T14:12:37.842Z,26.05
2022-11-24T14:15:40.386Z,24.58
2022-11-24T14:18:48.667Z,22.30
2022-11-24T14:21:51.260Z,23.12
2022-11-24T14:24:57.256Z,21.58
2022-11-24T14:28:00.529Z,21.27
2022-11-24T14:31:20.829Z,25.67
2022-11-24T14:34:26.099Z,20.62
2022-11-24T14:37:29.008Z,26.95
2022-11-24T14:40:38.023Z,24.40
2022-11-24T14:43:40.827Z,21.48
2022-11-24T14:46:43.734Z,27.35
2022-11-24T14:49:46.662Z,24.30
2022-11-24T14:52:57.016Z,24.77
2022-11-24T14:56:22.850Z,22.77
2022-11-24T14:59:27.936Z,25.42
2022-11-24T15:02:44.739Z,24.33
2022-11-24T15:06:01.046Z,21.52
2022-11-24T15:09:04.606Z,27.73
2022-11-24T15:12:12.576Z,22.87
2022-11-24T15:15:15.258Z,25.77
2022-11-24T15:18:43.719Z,25.67
2022-11-24T15:21:46.733Z,29.75
2022-11-24T15:24:53.418Z,21.98
2022-11-24T15:27:56.655Z,25.05
2022-11-24T15:31:05.064Z,26.55
2022-11-24T15:34:12.750Z,23.87
2022-11-24T15:37:15.237Z,25.27
2022-11-24T15:40:18.574Z,24.23
2022-11-24T15:43:36.543Z,24.40
2022-11-24T15:46:39.983Z,24.65
2022-11-24T15:49:42.505Z,26.30
2022-11-24T15:52:46.823Z,22.42
2022-11-24T15:55:50.452Z,25.62
2022-11-24T15:58:54.267Z,25.88
2022-11-24T16:01:56.837Z,30.15
2022-11-24T16:04:59.679Z,26.92
2022-11-24T16:08:02.387Z,25.42
2022-11-24T16:11:05.415Z,24.35
2022-11-24T16:14:08.112Z,24.05
2022-11-24T16:17:10.919Z,25.67
2022-11-24T16:20:13.884Z,25.45
2022-11-24T16:23:16.656Z,29.77
2022-11-24T16:26:19.516Z,28.87
2022-11-24T16:29:23.774Z,25.75
2022-11-24T16:32:26.331Z,26.30
2022-11-24T16:35:29.045Z,32.70
2022-11-24T16:38:31.947Z,26.62
2022-11-24T16:41:34.774Z,29.20
2022-11-24T16:44:37.555Z,28.02
2022-11-24T16:47:42.108Z,29.12
2022-11-24T16:50:44.583Z,28.50
2022-11-24T16:53:47.901Z,27.45
2022-11-24T16:56:50.383Z,28.42
2022-11-24T16:59:53.399Z,24.40
